LFRILFRS

Guest
Details From LFRI - La Roche sur Yon les Ajoncs
To LFRS - Nantes_Atlantique
Flight Number -
Tags generated
Created
Modified
Stats Distance 29 nm / 55 km
Max Altitude 0 ft / 0 m
Waypoints 3
Social Downloads 0
Likes 0
Share

Download

Looking for another format? Having issues loading an existing format? Contact us
Advertisement - Login to hide

Notes

Basic altitude profile: - Ascent Rate: 2500ft/min - Ascent Speed: 250kts - Cruise Altitude: 35000ft - Cruise Speed: 420kts - Descent Rate: 1500ft/min - Descent Speed: 250kts Options: - Use NATs: no - Use PACOTS: no - Use low airways: no - Use high airways: yes

Route

LFRI NTS LFRS

ID Type Via Altitude (ft/m) Position (lat/lon) Dist (leg/tot) Name
O LFRI APT - 0 / 0 46.70194 / -1.37862 - / 0 nm La Roche sur Yon les Ajoncs
NTS VOR - 0 / 0 47.16086 / -1.61296 29 / 29 nm NANTES ATLANTIQUE VOR-DME
O LFRS APT - 0 / 0 47.15604 / -1.61119 0 / 29 nm Nantes_Atlantique

Altitude Profile

Advertisement - Login to hide

LFRI

Details ICAO LFRI (EDM)
Name La Roche sur Yon les Ajoncs
Region France
Timezone Europe/Paris (UTC+1.0)
Stats Elevation 299 ft / 91 m (AMSL)
Location 46.701900° -1.378620°
Runways 1
Magnetic Variation 0.019° W

METAR

LFRI 300430Z AUTO 22005KT 9999 OVC037 13/11 Q1024

Decode

TAF

TAF LFRI 292102Z 2921/3018 CNL

Decode

Departure Runways

ID Width Length Bearing (true/mag) Surface Threshold Overrun Markings Lighting
10 98 ft / 30 m 5,073 ft / 1,546 m 101.40° / 101.42° ASPHALT 0 ft / 0 m 0 ft / 0 m APP EDGE THRESHOLD
28 98 ft / 30 m 5,073 ft / 1,546 m 281.42° / 281.43° ASPHALT 951 ft / 290 m 0 ft / 0 m PREC-APP EDGE THRESHOLD REIL-OMNI

LFRS

Details ICAO LFRS (NTE)
Name Nantes Atlantique Airport
Region France
Timezone Europe/Paris (UTC+1.0)
Stats Elevation 89 ft / 27 m (AMSL)
Location 47.153200° -1.610720°
Runways 1
Magnetic Variation 0.124° W

METAR

LFRS 300430Z AUTO 22007KT 9999 SCT013 SCT018 OVC040 14/13 Q1023 TEMPO 0300 FG VV///

Decode

TAF

TAF AMD LFRS 300428Z 3004/3106 23010KT 9999 BKN012 BKN040 TEMPO 3004/3006 BKN008 BECMG 3004/3006 17006KT 3000 BR PROB40 TEMPO 3005/3009 0300 FG VV/// BECMG 3009/3012 9999 NSW BECMG 3018/3020 3000 BR BECMG 3020/3023 0300 FG VV/// TEMPO 3023/3106 2000 BR OVC004

Decode

Destination Runways

ID Width Length Bearing (true/mag) Surface Threshold Overrun Markings Lighting
03 147 ft / 45 m 9,519 ft / 2,901 m 27.33° / 27.46° ASPHALT 0 ft / 0 m 0 ft / 0 m PREC-APP CENTERLINE EDGE THRESHOLD ALSF-II TDZ REIL-OMNI
21 147 ft / 45 m 9,519 ft / 2,901 m 207.35° / 207.47° ASPHALT 696 ft / 212 m 0 ft / 0 m APP CENTERLINE EDGE THRESHOLD RAIL REIL-OMNI

Approach Navaids

Runway Type Ident Frequency Range Bearing (true/mag) Slope Elevation
03 DME NT 109.90 MHz 27 nm / 50 km - - 89 ft / 27 m (AMSL)
03 LOC-ILS NT 109.90 MHz 18 nm / 33 km 27.35° / 27.47 ° - 89 ft / 27 m (AMSL)
03 GS NT 109.90 MHz 10 nm / 19 km 27.35° / 27.47 ° 3.00° 89 ft / 27 m (AMSL)

Popular Alternatives